Nuussuaq

KL  EN  DA
ASIAQ
Weather Now GREENLAND SURVEY
Updated [WGT/WGST] Temperature [°C] Wind [m/s] Air pressure [hPa] Relative humidity [%] Precipitation [mm]
Present Wind chill Speed Max
18.04 00:00-11,5-21,48,2 ⇖9,8101560n/a
17.04 23:00-11,3-20,36,7 ⇖8,8101556n/a
17.04 22:00-11,1-20,37,2 ⇖9,3101454n/a
17.04 21:00-11,0-20,27,2 ⇖9,8101351n/a
17.04 20:00n/an/an/an/an/an/an/a
17.04 19:00-11,1-21,69,8 ⇖13,4101255n/a
17.04 18:00-11,0-21,910,8 ⇖13,9101260n/a
17.04 17:00-10,9-21,49,8 ⇖12,4101155n/a
17.04 16:00-10,8-20,88,8 ⇖12,4101156n/a
17.04 15:00-10,9-21,19,3 ⇖11,8101055n/a
17.04 14:00-11,3-22,110,3 ⇖13,4101062n/a
17.04 13:00-11,4-22,09,8 ⇖13,4100970n/a
17.04 12:00-12,3-15,81,5 ⇘2,1101077n/a
17.04 11:00-13,5-18,42,1 ⇓2,6100978n/a
17.04 10:00-13,50,01,0 ⇓1,5100971n/a
17.04 09:00-14,0-19,82,6 ⇐2,6100971n/a
17.04 08:00-14,5-20,32,6 ⇐4,1100973n/a
17.04 07:00-14,6-20,52,6 ⇓3,1100978n/a
17.04 06:00-14,1-20,63,1 ⇘3,6100877n/a
17.04 05:00-14,2-20,73,1 ⇒4,1100778n/a
17.04 04:00-14,2-21,33,6 ⇒5,1100779n/a
17.04 03:00-14,0-17,71,5 ⇒2,6100778n/a
17.04 02:00-14,0-20,43,1 ⇒4,6100777n/a
17.04 01:00-13,7-21,24,1 ⇒5,7100682n/a
17.04 00:00-13,6-17,31,5 ⇙2,1100677n/a
Position: (70.656111111,-54.6)

[Back]